Time;durP1;ratioP1;P1;durP2;ratioP2;P2;SDS_P1;SDS_P2;PMS_P1;PMS_P2;Temp;Humidity;BMP_temperature;BMP_pressure;BME280_temperature;BME280_humidity;BME280_pressure;Samples;Min_cycle;Max_cycle;Signal;HPM_P1;HPM_P2
2021/03/08 00:00:26;;;;;;;16.30;8.70;;;1.50;80.50;;;;;;5078001;28;20210;-86
2021/03/08 00:03:03;;;;;;;14.33;10.67;;;1.50;80.60;;;;;;5052945;28;20191;-86
2021/03/08 00:05:31;;;;;;;12.83;8.03;;;1.40;80.50;;;;;;5056139;28;20679;-86
2021/03/08 00:07:57;;;;;;;14.03;8.57;;;1.40;80.60;;;;;;5041721;28;20575;-86
2021/03/08 00:10:23;;;;;;;16.80;7.90;;;1.40;80.60;;;;;;5038315;28;20194;-86
2021/03/08 00:12:49;;;;;;;13.93;6.77;;;1.40;80.60;;;;;;5078748;28;20630;-86
2021/03/08 00:15:17;;;;;;;11.73;7.10;;;1.40;80.90;;;;;;5042211;28;20195;-85
2021/03/08 00:17:43;;;;;;;13.53;8.17;;;1.40;80.80;;;;;;5060521;28;20333;-85
2021/03/08 00:20:15;;;;;;;11.30;8.10;;;1.40;80.60;;;;;;5084880;28;20211;-85
2021/03/08 00:22:41;;;;;;;16.10;7.80;;;1.30;80.70;;;;;;5042713;28;20196;-86
2021/03/08 00:25:13;;;;;;;18.30;8.77;;;1.40;80.80;;;;;;5046745;28;20190;-85
2021/03/08 00:27:38;;;;;;;9.97;6.50;;;1.30;80.90;;;;;;5045885;28;20182;-86
2021/03/08 00:30:06;;;;;;;12.13;7.93;;;1.30;80.80;;;;;;5048536;28;20191;-86
2021/03/08 00:32:32;;;;;;;16.13;8.03;;;1.30;80.80;;;;;;5057423;28;20201;-87
2021/03/08 00:34:59;;;;;;;13.90;8.70;;;1.30;80.80;;;;;;5038701;28;20215;-87
2021/03/08 00:37:30;;;;;;;11.87;8.40;;;1.30;80.90;;;;;;5052836;28;20211;-86
2021/03/08 00:40:04;;;;;;;12.00;8.50;;;1.30;80.80;;;;;;5049449;28;20194;-85
2021/03/08 00:42:30;;;;;;;15.70;8.53;;;1.30;80.70;;;;;;5073247;28;20716;-86
2021/03/08 00:44:56;;;;;;;11.93;8.03;;;1.30;80.80;;;;;;5041189;28;20191;-86
2021/03/08 00:47:22;;;;;;;13.00;8.70;;;1.30;80.60;;;;;;5075843;28;20262;-87
2021/03/08 00:49:49;;;;;;;17.23;9.13;;;1.30;80.60;;;;;;5060278;28;20187;-86
2021/03/08 00:52:14;;;;;;;16.03;9.30;;;1.30;80.70;;;;;;5045089;28;20195;-87
2021/03/08 00:54:41;;;;;;;18.90;9.33;;;1.30;80.60;;;;;;5036577;28;20277;-86
2021/03/08 00:57:07;;;;;;;19.00;10.37;;;1.30;80.80;;;;;;5033505;28;20568;-85
2021/03/08 00:59:33;;;;;;;23.70;11.63;;;1.30;80.90;;;;;;5041275;28;20183;-85
2021/03/08 01:01:58;;;;;;;19.87;10.83;;;1.30;80.70;;;;;;5050569;28;20178;-85
2021/03/08 01:04:24;;;;;;;25.13;10.70;;;1.30;81.10;;;;;;5070688;28;20305;-86
2021/03/08 01:06:50;;;;;;;21.30;11.97;;;1.30;81.20;;;;;;5058189;28;20206;-86
2021/03/08 01:09:16;;;;;;;20.63;11.43;;;1.30;81.10;;;;;;5050836;28;20612;-86
2021/03/08 01:11:43;;;;;;;19.17;9.73;;;1.30;81.10;;;;;;5066122;28;20194;-86
2021/03/08 01:14:09;;;;;;;20.43;10.27;;;1.30;81.10;;;;;;5046491;28;20210;-84
2021/03/08 01:16:36;;;;;;;21.70;10.00;;;1.20;81.20;;;;;;5052007;28;20187;-85
2021/03/08 01:19:02;;;;;;;12.40;6.37;;;1.30;81.10;;;;;;5045342;28;20259;-85
2021/03/08 01:21:27;;;;;;;12.23;8.00;;;1.30;81.40;;;;;;5043914;28;20265;-86
2021/03/08 01:23:53;;;;;;;14.13;8.17;;;1.30;81.20;;;;;;5082630;28;20187;-87
2021/03/08 01:26:19;;;;;;;16.00;6.97;;;1.20;81.20;;;;;;5049262;28;20672;-87
2021/03/08 01:28:46;;;;;;;14.23;7.87;;;1.20;81.50;;;;;;5084945;28;20865;-88
2021/03/08 01:31:12;;;;;;;17.03;7.97;;;1.20;81.50;;;;;;5049221;28;20194;-88
2021/03/08 01:33:38;;;;;;;10.00;7.07;;;1.20;81.70;;;;;;5062386;28;20185;-90
2021/03/08 01:36:04;;;;;;;12.07;6.67;;;1.20;81.70;;;;;;5036874;28;20210;-89
2021/03/08 01:38:30;;;;;;;13.17;7.30;;;1.20;81.70;;;;;;5046910;28;20209;-90
2021/03/08 01:40:56;;;;;;;12.90;7.23;;;1.20;81.80;;;;;;5045323;28;20183;-88
2021/03/08 01:43:23;;;;;;;11.23;7.33;;;1.20;81.70;;;;;;5080437;28;20187;-89
2021/03/08 01:45:49;;;;;;;13.23;8.50;;;1.20;81.80;;;;;;5035710;28;20254;-88
2021/03/08 01:48:15;;;;;;;12.50;6.87;;;1.20;82.10;;;;;;5050634;28;20220;-89
2021/03/08 01:50:46;;;;;;;8.13;6.70;;;1.20;82.00;;;;;;5046619;28;20218;-89
2021/03/08 01:53:16;;;;;;;15.87;7.63;;;1.10;82.20;;;;;;5049392;28;20248;-89
2021/03/08 01:55:41;;;;;;;18.23;8.10;;;1.10;81.90;;;;;;5052382;28;20222;-88
2021/03/08 01:58:07;;;;;;;27.53;7.37;;;1.10;82.10;;;;;;5050815;28;20183;-89
2021/03/08 02:00:34;;;;;;;12.37;6.13;;;1.10;82.10;;;;;;5053549;28;20236;-86
2021/03/08 02:03:00;;;;;;;14.40;6.67;;;1.00;82.20;;;;;;5058835;28;20247;-87
2021/03/08 02:05:32;;;;;;;11.20;6.93;;;1.00;82.30;;;;;;5045324;28;20952;-87
2021/03/08 02:07:58;;;;;;;13.60;7.97;;;1.00;82.60;;;;;;5047086;28;20187;-87
2021/03/08 02:10:27;;;;;;;14.83;7.50;;;1.00;82.40;;;;;;5038789;28;20194;-89
2021/03/08 02:12:59;;;;;;;8.37;7.03;;;1.00;82.50;;;;;;5052147;28;20191;-88
2021/03/08 02:15:31;;;;;;;13.73;8.27;;;0.90;82.70;;;;;;5049436;28;20202;-88
2021/03/08 02:18:02;;;;;;;20.03;9.73;;;0.90;83.40;;;;;;5078131;28;20272;-89
2021/03/08 02:20:59;;;;;;;8.90;7.97;;;0.80;83.10;;;;;;5050477;28;20197;-89
2021/03/08 02:24:10;;;;;;;15.83;9.20;;;0.80;83.10;;;;;;5043141;28;20179;-88
2021/03/08 02:26:59;;;;;;;12.67;8.43;;;0.80;83.90;;;;;;5044507;28;20186;-88
2021/03/08 02:29:43;;;;;;;21.83;10.07;;;0.80;83.90;;;;;;5015015;28;20199;-88
2021/03/08 02:32:10;;;;;;;17.27;9.13;;;0.80;83.80;;;;;;4992956;28;20200;-90
2021/03/08 02:34:46;;;;;;;16.17;9.40;;;0.80;83.90;;;;;;4977712;28;20217;-85
2021/03/08 02:37:20;;;;;;;14.30;9.27;;;0.80;83.90;;;;;;4983153;28;21087;-86
2021/03/08 02:39:50;;;;;;;17.43;9.70;;;0.90;83.80;;;;;;4988323;28;20195;-85
2021/03/08 02:42:26;;;;;;;15.77;8.90;;;0.90;83.60;;;;;;4993198;28;20196;-86
2021/03/08 02:44:57;;;;;;;17.20;9.57;;;0.90;83.80;;;;;;5005811;28;20200;-85
2021/03/08 02:47:24;;;;;;;18.23;9.33;;;0.90;83.30;;;;;;4987375;28;20205;-85
2021/03/08 02:49:53;;;;;;;18.40;10.50;;;0.90;83.70;;;;;;5003479;28;20226;-84
2021/03/08 02:52:21;;;;;;;20.67;9.53;;;0.90;83.60;;;;;;4979187;28;20193;-85
2021/03/08 02:54:52;;;;;;;15.27;8.80;;;0.80;83.40;;;;;;5014555;28;20217;-86
2021/03/08 02:57:22;;;;;;;15.63;8.50;;;0.80;83.50;;;;;;4987654;28;20185;-87
2021/03/08 02:59:49;;;;;;;17.10;9.70;;;0.80;83.60;;;;;;4998670;28;20208;-85
2021/03/08 03:02:16;;;;;;;15.83;9.67;;;0.80;83.30;;;;;;5007574;28;20229;-86
2021/03/08 03:04:44;;;;;;;12.43;8.93;;;0.80;83.40;;;;;;4991565;28;20628;-85
2021/03/08 03:07:11;;;;;;;15.50;8.33;;;0.70;83.30;;;;;;5031025;28;20206;-85
2021/03/08 03:09:40;;;;;;;22.80;9.07;;;0.70;83.30;;;;;;5042984;28;20265;-86
2021/03/08 03:12:07;;;;;;;23.87;9.77;;;0.70;83.40;;;;;;5080990;28;20277;-86
2021/03/08 03:14:34;;;;;;;18.57;8.80;;;0.70;83.40;;;;;;5063456;28;20206;-84
2021/03/08 03:17:07;;;;;;;12.33;9.10;;;0.60;83.30;;;;;;5049482;28;20187;-87
2021/03/08 03:19:40;;;;;;;21.73;10.70;;;0.60;83.20;;;;;;5069606;28;20191;-86
2021/03/08 03:22:08;;;;;;;19.27;10.30;;;0.60;83.70;;;;;;5051655;28;20191;-85
2021/03/08 03:24:35;;;;;;;21.93;10.23;;;0.60;83.80;;;;;;5046265;28;20192;-87
2021/03/08 03:27:03;;;;;;;17.40;9.87;;;0.60;83.60;;;;;;5054425;28;20694;-86
2021/03/08 03:29:31;;;;;;;21.00;10.27;;;0.50;83.80;;;;;;5057929;28;20210;-86
2021/03/08 03:31:58;;;;;;;21.37;10.27;;;0.50;83.90;;;;;;5045965;28;20187;-84
2021/03/08 03:34:25;;;;;;;20.73;10.97;;;0.50;83.70;;;;;;5062920;28;20871;-85
2021/03/08 03:36:52;;;;;;;15.67;10.60;;;0.40;84.00;;;;;;5063604;28;20782;-85
2021/03/08 03:39:18;;;;;;;14.57;9.43;;;0.40;83.90;;;;;;5052326;28;20181;-84
2021/03/08 03:41:44;;;;;;;18.73;9.67;;;0.40;84.20;;;;;;5071764;28;20188;-83
2021/03/08 03:44:15;;;;;;;21.73;10.73;;;0.40;84.20;;;;;;5074981;28;20612;-84
2021/03/08 03:46:44;;;;;;;19.50;10.37;;;0.30;84.20;;;;;;5050831;28;20244;-84
2021/03/08 03:49:11;;;;;;;20.70;10.53;;;0.30;84.40;;;;;;5048427;28;20194;-85
2021/03/08 03:51:38;;;;;;;21.63;10.73;;;0.30;84.50;;;;;;5039702;28;20191;-84
2021/03/08 03:54:05;;;;;;;16.87;8.93;;;0.30;84.50;;;;;;5078861;28;20183;-86
2021/03/08 03:56:32;;;;;;;21.20;10.60;;;0.30;84.80;;;;;;5056140;28;20200;-86
2021/03/08 03:59:03;;;;;;;19.10;11.50;;;0.20;85.00;;;;;;5048780;28;20187;-84
2021/03/08 04:01:41;;;;;;;13.53;8.73;;;0.20;85.20;;;;;;5040434;28;20176;-83
2021/03/08 04:04:20;;;;;;;17.87;8.40;;;0.20;85.10;;;;;;5081241;28;20271;-87
2021/03/08 04:06:50;;;;;;;14.90;9.57;;;0.20;85.00;;;;;;5044133;28;20193;-87
2021/03/08 04:09:22;;;;;;;23.00;11.17;;;0.20;85.00;;;;;;5038233;28;20257;-87
2021/03/08 04:11:50;;;;;;;20.70;10.60;;;0.20;85.10;;;;;;5042875;28;20211;-86
2021/03/08 04:14:18;;;;;;;17.33;10.47;;;0.10;85.00;;;;;;5049971;28;20249;-85
2021/03/08 04:16:47;;;;;;;12.93;8.80;;;0.10;85.20;;;;;;5079344;28;20201;-84
2021/03/08 04:19:14;;;;;;;13.90;8.37;;;0.10;85.10;;;;;;5043265;28;20647;-84
2021/03/08 04:21:41;;;;;;;16.73;9.27;;;0.00;85.10;;;;;;5070998;28;20178;-85
2021/03/08 04:24:10;;;;;;;17.07;8.33;;;0.00;85.10;;;;;;5076495;28;20214;-86
2021/03/08 04:26:38;;;;;;;16.90;8.57;;;0.00;85.40;;;;;;5081993;28;20664;-88
2021/03/08 04:29:05;;;;;;;14.87;9.70;;;0.00;85.30;;;;;;5046878;28;20191;-86
2021/03/08 04:31:33;;;;;;;19.83;8.27;;;-0.10;85.50;;;;;;5047267;28;20180;-87
2021/03/08 04:34:02;;;;;;;23.93;10.27;;;-0.10;85.50;;;;;;5078515;28;20187;-88
2021/03/08 04:36:28;;;;;;;21.30;9.13;;;-0.10;85.40;;;;;;5057072;28;20194;-89
2021/03/08 04:38:55;;;;;;;12.43;7.83;;;-0.10;85.60;;;;;;5079198;28;20671;-86
2021/03/08 04:41:21;;;;;;;15.33;9.10;;;-0.20;85.50;;;;;;5053178;28;20267;-87
2021/03/08 04:43:48;;;;;;;26.50;9.00;;;-0.20;85.60;;;;;;5063739;28;20186;-86
2021/03/08 04:46:14;;;;;;;15.67;9.50;;;-0.20;85.70;;;;;;5096369;28;20575;-87
2021/03/08 04:48:41;;;;;;;16.47;9.40;;;-0.20;85.90;;;;;;5053141;28;20193;-87
2021/03/08 04:51:08;;;;;;;21.17;10.43;;;-0.30;86.00;;;;;;5047451;28;20285;-87
2021/03/08 04:53:37;;;;;;;20.30;10.47;;;-0.30;86.20;;;;;;5050257;28;22097;-86
2021/03/08 04:56:04;;;;;;;23.20;10.50;;;-0.30;86.30;;;;;;5051112;28;20204;-86
2021/03/08 04:58:34;;;;;;;17.27;8.27;;;-0.30;86.10;;;;;;5046079;28;20224;-85
2021/03/08 05:01:00;;;;;;;18.57;7.57;;;-0.30;86.80;;;;;;5035939;28;20184;-86
2021/03/08 05:03:27;;;;;;;15.33;8.80;;;-0.40;86.70;;;;;;5084903;28;20628;-85
2021/03/08 05:05:55;;;;;;;22.37;11.50;;;-0.40;86.60;;;;;;5050348;28;20242;-85
2021/03/08 05:08:23;;;;;;;27.13;11.13;;;-0.40;86.60;;;;;;5069954;28;20199;-86
2021/03/08 05:10:51;;;;;;;19.57;8.87;;;-0.40;86.60;;;;;;5044933;28;20201;-85
2021/03/08 05:13:19;;;;;;;25.53;8.33;;;-0.40;86.90;;;;;;5040046;28;20181;-86
2021/03/08 05:15:46;;;;;;;18.17;9.20;;;-0.40;86.80;;;;;;5070717;28;20220;-86
2021/03/08 05:18:13;;;;;;;16.10;7.87;;;-0.40;86.70;;;;;;5078896;28;20200;-84
2021/03/08 05:20:40;;;;;;;20.87;9.60;;;-0.40;86.80;;;;;;5053925;28;20193;-84
2021/03/08 05:23:06;;;;;;;15.73;9.57;;;-0.30;87.00;;;;;;5052487;28;20662;-85
2021/03/08 05:25:33;;;;;;;17.57;8.30;;;-0.30;86.90;;;;;;5049046;28;20214;-82
2021/03/08 05:28:00;;;;;;;12.77;7.43;;;-0.30;86.70;;;;;;5062405;28;20748;-81
2021/03/08 05:30:27;;;;;;;16.17;8.70;;;-0.30;86.70;;;;;;5069909;28;20254;-80
2021/03/08 05:32:55;;;;;;;10.10;6.77;;;-0.30;86.60;;;;;;5049652;28;20197;-82
2021/03/08 05:35:23;;;;;;;10.10;7.10;;;-0.20;86.60;;;;;;5036560;28;20219;-82
2021/03/08 05:37:50;;;;;;;10.03;7.67;;;-0.20;86.60;;;;;;5044410;28;20210;-81
2021/03/08 05:40:28;;;;;;;8.80;6.53;;;-0.10;86.60;;;;;;5055242;28;20175;-81
2021/03/08 05:43:06;;;;;;;12.23;6.53;;;-0.10;86.40;;;;;;5081671;28;20275;-80
2021/03/08 05:45:42;;;;;;;17.00;6.57;;;-0.10;86.50;;;;;;5062528;28;20190;-82
2021/03/08 05:48:24;;;;;;;13.03;8.73;;;0.00;86.40;;;;;;5045114;28;20187;-82
2021/03/08 05:51:11;;;;;;;16.83;6.83;;;0.00;86.40;;;;;;5057171;28;20190;-82
2021/03/08 05:53:50;;;;;;;16.23;10.10;;;0.10;86.20;;;;;;5083854;28;20196;-81
2021/03/08 05:56:26;;;;;;;13.00;9.60;;;0.10;86.10;;;;;;5051913;28;20213;-82
2021/03/08 05:59:29;;;;;;;11.50;7.50;;;0.20;86.20;;;;;;5040644;28;20281;-82
2021/03/08 06:02:23;;;;;;;18.40;10.63;;;0.30;86.10;;;;;;5049374;28;20208;-81
2021/03/08 06:05:07;;;;;;;17.80;8.20;;;0.40;86.60;;;;;;5045927;28;20232;-81
2021/03/08 06:07:58;;;;;;;25.33;10.80;;;0.50;86.40;;;;;;5052531;28;20200;-81
2021/03/08 06:10:25;;;;;;;15.57;9.87;;;0.50;86.10;;;;;;5056524;28;20186;-87
2021/03/08 06:12:57;;;;;;;20.90;10.97;;;0.50;86.10;;;;;;5039577;28;20217;-83
2021/03/08 06:15:27;;;;;;;16.07;9.47;;;0.60;86.30;;;;;;5061797;28;20215;-80
2021/03/08 06:17:53;;;;;;;28.77;11.13;;;0.60;86.00;;;;;;5064344;28;20280;-81
2021/03/08 06:20:20;;;;;;;20.00;10.47;;;0.70;85.70;;;;;;5063126;28;20202;-75
2021/03/08 06:22:46;;;;;;;23.10;11.30;;;0.80;85.70;;;;;;5048296;28;20745;-81
2021/03/08 06:25:13;;;;;;;19.67;11.47;;;0.80;85.50;;;;;;5049668;28;21002;-83
2021/03/08 06:27:47;;;;;;;21.67;10.33;;;0.90;85.40;;;;;;5049096;28;20285;-86
2021/03/08 06:30:14;;;;;;;18.80;11.70;;;1.00;85.10;;;;;;5046552;28;20175;-74
2021/03/08 06:32:39;;;;;;;29.83;12.83;;;1.10;85.00;;;;;;5067249;28;20186;-75
2021/03/08 06:35:06;;;;;;;21.20;12.00;;;1.20;84.80;;;;;;5069804;28;20731;-76
2021/03/08 06:37:34;;;;;;;22.43;11.50;;;1.30;84.60;;;;;;5069005;28;20178;-81
2021/03/08 06:40:00;;;;;;;24.83;12.67;;;1.40;84.30;;;;;;5067840;28;20265;-81
2021/03/08 06:42:25;;;;;;;24.10;12.30;;;1.50;84.00;;;;;;5051845;28;20674;-80
2021/03/08 06:44:51;;;;;;;23.60;10.10;;;1.60;83.90;;;;;;5072116;28;20218;-82
2021/03/08 06:47:19;;;;;;;16.83;9.93;;;1.70;83.70;;;;;;5040160;28;20194;-81
2021/03/08 06:49:45;;;;;;;11.50;7.60;;;1.70;83.50;;;;;;5053630;28;20576;-81
2021/03/08 06:52:18;;;;;;;16.83;9.13;;;1.80;83.40;;;;;;5051742;28;20183;-80
2021/03/08 06:55:04;;;;;;;21.57;10.63;;;1.80;83.00;;;;;;5053157;28;20275;-80
2021/03/08 06:57:38;;;;;;;30.57;13.07;;;2.00;82.80;;;;;;5070356;28;20207;-79
2021/03/08 07:00:11;;;;;;;16.33;10.23;;;2.00;82.70;;;;;;5050540;28;20262;-79
2021/03/08 07:02:45;;;;;;;23.87;13.70;;;2.10;82.70;;;;;;5044856;28;20205;-81
2021/03/08 07:05:24;;;;;;;25.93;13.93;;;2.20;82.40;;;;;;5042681;28;20245;-79
2021/03/08 07:07:53;;;;;;;19.17;12.07;;;2.20;82.30;;;;;;5054845;28;20611;-80
2021/03/08 07:10:35;;;;;;;33.10;13.10;;;2.30;82.30;;;;;;5059714;28;20191;-81
2021/03/08 07:13:03;;;;;;;21.33;12.83;;;2.40;82.00;;;;;;5053030;28;20240;-81
2021/03/08 07:15:29;;;;;;;25.27;11.47;;;2.50;82.10;;;;;;5063302;28;20197;-80
2021/03/08 07:17:54;;;;;;;26.03;12.23;;;2.70;81.50;;;;;;5056800;28;20575;-80
2021/03/08 07:20:20;;;;;;;18.40;10.23;;;2.80;81.50;;;;;;5045734;28;20195;-80
2021/03/08 07:22:49;;;;;;;21.70;12.37;;;2.90;80.70;;;;;;5051907;28;20273;-80
2021/03/08 07:25:16;;;;;;;24.33;12.70;;;3.00;80.70;;;;;;5038662;28;20186;-80
2021/03/08 07:27:43;;;;;;;23.67;13.77;;;3.10;80.40;;;;;;5051491;28;20282;-79
2021/03/08 07:30:10;;;;;;;16.63;11.57;;;3.20;80.30;;;;;;5063902;28;20813;-80
2021/03/08 07:32:39;;;;;;;30.90;13.40;;;3.30;79.80;;;;;;5047874;28;20220;-79
2021/03/08 07:35:05;;;;;;;20.17;10.53;;;3.50;79.50;;;;;;5049719;28;20211;-81
2021/03/08 07:37:43;;;;;;;21.40;11.33;;;3.60;78.80;;;;;;5068433;28;20179;-78
2021/03/08 07:40:19;;;;;;;16.17;9.33;;;3.70;78.30;;;;;;5049866;28;20193;-81
2021/03/08 07:42:45;;;;;;;15.00;8.23;;;3.80;78.50;;;;;;5050013;28;20270;-80
2021/03/08 07:45:11;;;;;;;16.33;9.80;;;3.90;78.20;;;;;;5065802;28;20749;-80
2021/03/08 07:47:37;;;;;;;16.53;9.83;;;4.10;78.30;;;;;;5067698;28;20210;-80
2021/03/08 07:50:26;;;;;;;22.00;12.00;;;4.20;78.10;;;;;;5052054;28;20219;-80
2021/03/08 07:52:54;;;;;;;22.07;10.27;;;4.50;77.20;;;;;;5033111;28;20557;-79
2021/03/08 07:55:20;;;;;;;17.47;9.67;;;4.80;77.10;;;;;;5057403;28;20280;-81
2021/03/08 07:57:46;;;;;;;17.23;10.50;;;5.20;76.50;;;;;;5038466;28;20187;-80
2021/03/08 08:00:13;;;;;;;16.67;9.53;;;5.80;75.60;;;;;;5069520;28;20236;-81
2021/03/08 08:02:38;;;;;;;16.60;9.53;;;6.50;74.00;;;;;;5050799;28;20186;-81
2021/03/08 08:05:05;;;;;;;18.27;9.97;;;7.20;73.00;;;;;;5063923;28;20210;-80
2021/03/08 08:07:32;;;;;;;21.47;11.67;;;8.00;71.80;;;;;;5039624;28;20221;-81
2021/03/08 08:10:03;;;;;;;23.70;12.57;;;8.90;70.30;;;;;;5056975;28;20821;-79
2021/03/08 08:12:33;;;;;;;31.67;12.03;;;9.80;66.70;;;;;;5042867;28;20336;-80
2021/03/08 08:15:04;;;;;;;22.50;12.87;;;10.60;66.20;;;;;;5073462;28;20226;-80
2021/03/08 08:17:34;;;;;;;26.03;14.53;;;11.50;62.90;;;;;;5066584;28;20179;-80
2021/03/08 08:20:03;;;;;;;23.27;13.57;;;12.00;61.20;;;;;;5056974;28;20946;-81
2021/03/08 08:22:32;;;;;;;23.93;13.77;;;12.60;61.10;;;;;;5058663;28;20195;-80
2021/03/08 08:25:00;;;;;;;26.17;13.73;;;12.90;59.00;;;;;;5047470;28;20197;-80
2021/03/08 08:27:26;;;;;;;22.67;13.13;;;13.00;58.10;;;;;;5061400;28;20175;-81
2021/03/08 08:29:52;;;;;;;24.37;13.93;;;13.00;57.70;;;;;;5056462;28;20212;-80
2021/03/08 08:32:18;;;;;;;23.90;13.73;;;13.30;58.20;;;;;;5040398;28;20188;-80
2021/03/08 08:34:45;;;;;;;23.57;13.70;;;13.80;57.10;;;;;;5067931;28;20210;-80
2021/03/08 08:37:12;;;;;;;24.37;14.43;;;14.10;55.80;;;;;;5051145;28;20175;-81
2021/03/08 08:39:58;;;;;;;27.95;14.85;;;14.20;55.70;;;;;;5048811;28;20948;-81
2021/03/08 08:42:27;;;;;;;24.83;14.18;;;14.30;55.70;;;;;;4968180;28;20194;-81
2021/03/08 08:44:54;;;;;;;20.42;13.60;;;14.30;55.50;;;;;;4950944;28;20641;-81
2021/03/08 08:47:21;;;;;;;21.95;13.63;;;14.40;55.60;;;;;;4968519;28;20194;-79
2021/03/08 08:49:49;;;;;;;23.85;12.52;;;15.00;55.40;;;;;;4951603;28;20206;-81
2021/03/08 08:52:17;;;;;;;23.13;13.50;;;15.70;55.10;;;;;;4944789;28;20701;-80
2021/03/08 08:54:53;;;;;;;26.52;14.57;;;16.30;53.20;;;;;;4961748;28;20411;-80
2021/03/08 08:57:20;;;;;;;25.42;13.77;;;16.90;52.40;;;;;;4968226;28;20198;-80
2021/03/08 09:00:07;;;;;;;19.25;14.27;;;17.40;51.00;;;;;;4967845;28;20193;-80
2021/03/08 09:02:32;;;;;;;27.17;14.70;;;17.30;50.80;;;;;;4939686;28;20672;-81
2021/03/08 09:04:58;;;;;;;20.02;14.18;;;17.30;50.30;;;;;;4967387;28;20197;-80
2021/03/08 09:07:29;;;;;;;26.05;14.68;;;17.50;50.70;;;;;;4968124;28;20206;-81
2021/03/08 09:09:57;;;;;;;22.90;14.50;;;17.80;50.50;;;;;;4968030;28;20193;-80
2021/03/08 09:12:31;;;;;;;24.58;14.30;;;18.50;50.20;;;;;;4966960;28;20195;-81
2021/03/08 09:15:04;;;;;;;24.85;14.50;;;19.10;49.40;;;;;;4951027;28;20421;-82
2021/03/08 09:17:32;;;;;;;20.98;14.40;;;19.50;48.70;;;;;;4954261;28;20736;-81
2021/03/08 09:19:58;;;;;;;24.48;15.07;;;20.10;48.10;;;;;;5011405;28;20211;-81
2021/03/08 09:22:24;;;;;;;26.63;15.88;;;20.70;47.30;;;;;;5059490;28;20201;-81
2021/03/08 09:25:09;;;;;;;23.80;15.25;;;20.70;45.60;;;;;;5062250;28;20175;-81
2021/03/08 09:27:41;;;;;;;22.08;15.65;;;20.60;45.90;;;;;;5067032;28;20715;-82
2021/03/08 09:30:11;;;;;;;25.17;15.10;;;20.20;46.30;;;;;;5068066;28;20179;-81
2021/03/08 09:33:04;;;;;;;21.50;15.27;;;20.30;47.10;;;;;;5065070;28;20167;-82
2021/03/08 09:35:42;;;;;;;24.35;15.15;;;20.50;46.30;;;;;;5057588;28;20192;-81
2021/03/08 09:38:13;;;;;;;25.52;16.58;;;20.50;46.10;;;;;;5044045;28;20577;-81
2021/03/08 09:40:45;;;;;;;24.80;15.85;;;20.40;46.20;;;;;;5046325;28;20248;-81
2021/03/08 09:43:24;;;;;;;29.50;16.42;;;20.40;46.60;;;;;;5048396;28;20236;-81
2021/03/08 09:45:55;;;;;;;26.08;17.02;;;20.80;45.90;;;;;;5064214;28;20182;-81
2021/03/08 09:48:21;;;;;;;22.15;15.45;;;21.00;46.00;;;;;;5049480;28;20686;-81
2021/03/08 09:50:47;;;;;;;21.85;15.75;;;21.50;45.50;;;;;;5067557;28;20186;-81
2021/03/08 09:53:14;;;;;;;22.48;14.93;;;22.00;45.10;;;;;;5049227;28;20492;-81
2021/03/08 09:55:40;;;;;;;24.40;15.15;;;22.50;44.90;;;;;;5046251;28;20251;-80
2021/03/08 09:58:15;;;;;;;27.27;15.57;;;23.20;44.00;;;;;;5050361;28;20264;-81
2021/03/08 10:00:43;;;;;;;25.58;15.82;;;23.90;43.30;;;;;;5050982;28;20614;-81
2021/03/08 10:03:10;;;;;;;21.85;15.30;;;24.40;42.40;;;;;;5058183;28;20265;-80
2021/03/08 10:05:45;;;;;;;23.65;15.18;;;25.00;42.10;;;;;;5067196;28;20183;-81
2021/03/08 10:08:13;;;;;;;28.35;16.80;;;25.50;41.70;;;;;;5054187;28;20183;-82
2021/03/08 10:10:50;;;;;;;28.60;16.75;;;25.90;41.80;;;;;;5060848;28;20194;-81
2021/03/08 10:13:17;;;;;;;25.23;15.48;;;26.30;40.70;;;;;;5048139;28;20179;-81
2021/03/08 10:15:54;;;;;;;24.13;15.63;;;26.60;41.20;;;;;;5057547;28;20205;-80
2021/03/08 10:18:21;;;;;;;26.13;16.33;;;26.90;40.80;;;;;;5081836;28;20209;-81
2021/03/08 10:20:55;;;;;;;24.45;17.15;;;26.60;39.80;;;;;;5064021;28;20210;-82
2021/03/08 10:23:34;;;;;;;32.17;17.70;;;26.20;40.50;;;;;;5065220;28;20266;-81
2021/03/08 10:26:14;;;;;;;24.15;16.60;;;26.00;40.60;;;;;;5057667;28;20167;-81
2021/03/08 10:28:42;;;;;;;24.80;16.65;;;26.00;40.80;;;;;;5065527;28;20191;-81
2021/03/08 10:31:22;;;;;;;25.40;16.23;;;25.90;40.80;;;;;;5066358;28;20226;-81
2021/03/08 10:33:52;;;;;;;24.75;14.35;;;25.80;40.70;;;;;;5045210;28;20214;-81
2021/03/08 10:36:24;;;;;;;23.98;14.70;;;26.10;41.10;;;;;;5046695;28;20288;-82
2021/03/08 10:38:55;;;;;;;23.13;14.63;;;26.60;40.90;;;;;;5073137;28;20195;-82
2021/03/08 10:41:23;;;;;;;18.00;13.23;;;26.70;40.90;;;;;;5044336;28;21104;-82
2021/03/08 10:43:50;;;;;;;20.70;12.75;;;26.80;40.20;;;;;;5049427;28;20197;-82
2021/03/08 10:46:16;;;;;;;16.85;13.48;;;26.60;40.00;;;;;;5060912;28;20237;-82
2021/03/08 10:49:12;;;;;;;18.05;12.93;;;26.50;40.30;;;;;;5044164;28;20244;-81
2021/03/08 10:51:41;;;;;;;16.10;11.90;;;26.30;40.20;;;;;;5033035;28;20607;-82
2021/03/08 10:54:12;;;;;;;16.60;11.27;;;26.50;40.80;;;;;;5055917;28;20266;-81
2021/03/08 10:56:40;;;;;;;15.10;9.93;;;26.20;40.70;;;;;;5045413;28;20183;-82
2021/03/08 10:59:28;;;;;;;14.30;10.35;;;25.80;40.60;;;;;;5063835;28;20187;-81
2021/03/08 11:02:04;;;;;;;12.40;9.98;;;25.40;40.30;;;;;;5065007;28;20186;-81
2021/03/08 11:04:30;;;;;;;14.40;10.55;;;24.60;41.40;;;;;;5078916;28;20272;-82
2021/03/08 11:06:56;;;;;;;22.48;10.80;;;24.20;42.10;;;;;;5085815;28;20325;-82
2021/03/08 11:09:32;;;;;;;14.23;10.70;;;23.70;42.40;;;;;;5067205;28;20822;-81
2021/03/08 11:11:59;;;;;;;13.75;8.80;;;23.10;42.80;;;;;;5063706;28;20207;-82
2021/03/08 11:14:25;;;;;;;9.75;7.68;;;23.10;43.10;;;;;;5046875;28;20179;-83
2021/03/08 11:16:53;;;;;;;4.68;4.03;;;22.90;42.00;;;;;;5063751;28;20713;-81
2021/03/08 11:19:21;;;;;;;2.90;2.13;;;22.30;40.20;;;;;;5032820;28;20200;-80
2021/03/08 11:22:10;;;;;;;2.63;2.30;;;21.50;39.70;;;;;;5033494;28;20196;-81
2021/03/08 11:24:47;;;;;;;2.35;2.25;;;20.90;40.50;;;;;;5063855;28;20276;-81
2021/03/08 11:27:27;;;;;;;2.65;2.50;;;21.00;40.50;;;;;;5071479;28;20178;-81
2021/03/08 11:30:12;;;;;;;3.47;2.10;;;21.10;40.40;;;;;;5066158;28;20179;-80
2021/03/08 11:32:41;;;;;;;2.35;2.20;;;21.00;40.50;;;;;;5055208;28;20190;-81
2021/03/08 11:35:18;;;;;;;2.35;2.25;;;21.20;40.50;;;;;;5048212;28;20190;-80
2021/03/08 11:37:48;;;;;;;2.08;1.85;;;21.70;40.10;;;;;;5050111;28;20187;-82
2021/03/08 11:40:17;;;;;;;2.65;1.98;;;22.00;38.80;;;;;;5052919;28;20179;-83
2021/03/08 11:42:42;;;;;;;2.10;1.98;;;21.70;38.90;;;;;;5049928;28;20187;-83
2021/03/08 11:45:09;;;;;;;2.30;2.08;;;20.90;39.30;;;;;;5041568;28;20291;-84
2021/03/08 11:47:35;;;;;;;2.05;1.73;;;20.00;40.80;;;;;;5054895;28;20251;-84
2021/03/08 11:50:02;;;;;;;2.42;2.33;;;19.40;40.30;;;;;;5066552;28;20196;-83
2021/03/08 11:52:28;;;;;;;1.88;1.80;;;18.50;40.80;;;;;;5064596;28;20187;-83
2021/03/08 11:54:53;;;;;;;1.38;1.38;;;17.80;41.90;;;;;;5051500;28;20190;-83
2021/03/08 11:57:20;;;;;;;2.10;1.80;;;17.50;42.10;;;;;;5045618;28;20171;-83
2021/03/08 11:59:45;;;;;;;1.90;1.80;;;17.50;42.70;;;;;;5067201;28;20394;-82
2021/03/08 12:02:11;;;;;;;1.63;1.52;;;18.00;42.00;;;;;;5065329;28;20193;-82
2021/03/08 12:04:37;;;;;;;1.33;1.33;;;18.40;41.90;;;;;;5053108;28;20569;-83
2021/03/08 12:07:02;;;;;;;1.60;1.50;;;18.80;41.40;;;;;;5053300;28;20183;-82
2021/03/08 12:09:33;;;;;;;3.08;1.85;;;18.90;41.40;;;;;;5050388;28;20183;-82
2021/03/08 12:11:58;;;;;;;2.78;1.95;;;19.20;41.30;;;;;;5057271;28;20183;-81
2021/03/08 12:14:24;;;;;;;1.83;1.83;;;19.70;41.40;;;;;;5059684;28;20183;-82
2021/03/08 12:16:50;;;;;;;6.43;1.33;;;20.10;40.70;;;;;;5052293;28;20179;-82
2021/03/08 12:19:17;;;;;;;1.63;1.63;;;20.10;39.80;;;;;;5071450;28;20190;-83
2021/03/08 12:21:45;;;;;;;1.80;1.70;;;19.60;39.40;;;;;;5071355;28;20203;-81
2021/03/08 12:24:11;;;;;;;1.38;1.17;;;19.30;40.30;;;;;;5048718;28;20380;-82
2021/03/08 12:26:36;;;;;;;2.30;1.13;;;19.00;39.90;;;;;;5061021;28;20660;-82
2021/03/08 12:29:02;;;;;;;1.92;1.30;;;18.60;40.20;;;;;;5054387;28;20197;-82
2021/03/08 12:31:28;;;;;;;4.57;1.38;;;18.30;40.70;;;;;;5072268;28;20258;-81
2021/03/08 12:33:57;;;;;;;2.28;1.30;;;18.10;41.00;;;;;;5048583;28;20182;-82
2021/03/08 12:36:22;;;;;;;1.48;1.38;;;17.90;41.70;;;;;;5066149;28;20190;-83
2021/03/08 12:38:48;;;;;;;1.30;1.20;;;17.70;41.10;;;;;;5045036;28;20187;-82
2021/03/08 12:41:14;;;;;;;1.10;1.10;;;17.40;41.40;;;;;;5047058;28;20211;-81
2021/03/08 12:43:40;;;;;;;3.88;1.55;;;17.20;42.00;;;;;;5041681;28;20187;-82
2021/03/08 12:46:06;;;;;;;1.15;1.15;;;16.80;42.20;;;;;;5048758;28;20202;-83
2021/03/08 12:48:32;;;;;;;2.92;1.17;;;16.90;42.90;;;;;;5057944;28;20285;-82
2021/03/08 12:50:58;;;;;;;2.83;1.00;;;17.40;42.60;;;;;;5037368;28;20341;-81